createdAt,value
2022-12-23T00:02:05.664Z,24.50
2022-12-23T00:04:38.510Z,24.50
2022-12-23T00:07:11.359Z,24.60
2022-12-23T00:09:44.408Z,24.60
2022-12-23T00:12:42.027Z,24.60
2022-12-23T00:15:15.561Z,24.70
2022-12-23T00:17:49.479Z,24.70
2022-12-23T00:20:22.410Z,24.70
2022-12-23T00:23:10.550Z,24.70
2022-12-23T00:25:46.234Z,24.70
2022-12-23T00:28:20.567Z,24.70
2022-12-23T00:30:58.088Z,24.70
2022-12-23T00:33:36.446Z,24.80
2022-12-23T00:36:17.262Z,24.80
2022-12-23T00:38:51.426Z,24.80
2022-12-23T00:41:46.954Z,24.80
2022-12-23T00:44:19.874Z,24.80
2022-12-23T00:46:52.990Z,24.80
2022-12-23T00:49:43.424Z,24.80
2022-12-23T00:52:21.284Z,24.80
2022-12-23T00:54:54.181Z,24.80
2022-12-23T00:57:27.108Z,24.80
2022-12-23T01:00:00.249Z,24.90
2022-12-23T01:02:51.401Z,24.90
2022-12-23T01:05:40.638Z,24.80
2022-12-23T01:08:15.316Z,24.70
2022-12-23T01:10:48.122Z,24.70
2022-12-23T01:13:21.009Z,24.70
2022-12-23T01:15:53.926Z,24.60
2022-12-23T01:18:26.988Z,24.50
2022-12-23T01:21:00.102Z,24.50
2022-12-23T01:23:33.133Z,24.50
2022-12-23T01:26:07.364Z,24.50
2022-12-23T01:28:40.787Z,24.40
2022-12-23T01:31:17.291Z,24.30
2022-12-23T01:33:50.422Z,24.30
2022-12-23T01:36:23.556Z,24.30
2022-12-23T01:38:56.272Z,24.20
2022-12-23T01:41:47.755Z,24.20
2022-12-23T01:44:54.969Z,24.20
2022-12-23T01:47:42.180Z,24.20
2022-12-23T01:50:16.704Z,24.20
2022-12-23T01:53:09.461Z,24.10
2022-12-23T01:55:44.418Z,24.10
2022-12-23T01:58:19.343Z,24.00
2022-12-23T02:01:09.568Z,24.00
2022-12-23T02:03:46.962Z,24.00
2022-12-23T02:06:54.893Z,24.00
2022-12-23T02:09:36.041Z,24.00
2022-12-23T02:12:17.182Z,23.90
2022-12-23T02:15:24.362Z,23.90
2022-12-23T02:18:11.882Z,23.80
2022-12-23T02:21:05.055Z,23.80
2022-12-23T02:23:51.646Z,23.80
2022-12-23T02:26:32.284Z,23.70
2022-12-23T02:29:18.482Z,23.70
2022-12-23T02:32:03.088Z,23.70
2022-12-23T02:34:43.962Z,23.70
2022-12-23T02:37:24.611Z,23.70
2022-12-23T02:40:02.651Z,23.60
2022-12-23T02:42:37.166Z,23.60
2022-12-23T02:45:14.723Z,23.70
2022-12-23T02:47:49.982Z,23.70
2022-12-23T02:50:24.528Z,23.70
2022-12-23T02:52:58.986Z,23.70
2022-12-23T02:55:37.070Z,23.70
2022-12-23T02:58:11.948Z,23.70
2022-12-23T03:00:46.696Z,23.70
2022-12-23T03:03:25.709Z,23.70
2022-12-23T03:05:59.585Z,23.70
2022-12-23T03:08:37.162Z,23.60
2022-12-23T03:11:15.246Z,23.60
2022-12-23T03:14:07.932Z,23.60
2022-12-23T03:17:09.940Z,23.60
2022-12-23T03:19:47.975Z,23.60
2022-12-23T03:22:25.753Z,23.60
2022-12-23T03:25:06.506Z,23.70
2022-12-23T03:27:41.333Z,23.70
2022-12-23T03:30:16.651Z,23.70
2022-12-23T03:33:01.752Z,23.70
2022-12-23T03:35:39.292Z,23.70
2022-12-23T03:38:13.621Z,23.70
2022-12-23T03:40:48.933Z,23.60
2022-12-23T03:43:27.516Z,23.60
2022-12-23T03:46:14.171Z,23.60
2022-12-23T03:48:51.755Z,23.60
2022-12-23T03:51:39.762Z,23.60
2022-12-23T03:54:14.874Z,23.60
2022-12-23T03:56:49.443Z,23.60
2022-12-23T03:59:27.493Z,23.60
2022-12-23T04:02:26.549Z,23.50
2022-12-23T04:05:18.016Z,23.50
2022-12-23T04:08:10.770Z,23.40
2022-12-23T04:10:43.760Z,23.40
2022-12-23T04:13:16.699Z,23.40
2022-12-23T04:15:49.990Z,23.40
2022-12-23T04:18:22.860Z,23.40
2022-12-23T04:20:55.920Z,23.30
2022-12-23T04:23:28.923Z,23.30
2022-12-23T04:26:01.929Z,23.30
2022-12-23T04:28:35.716Z,23.30
2022-12-23T04:31:08.851Z,23.20
2022-12-23T04:36:36.180Z,23.20
2022-12-23T04:39:09.033Z,23.10
2022-12-23T04:41:45.225Z,23.10
2022-12-23T04:44:28.646Z,23.10
2022-12-23T04:47:02.778Z,23.10
2022-12-23T04:49:41.654Z,23.00
2022-12-23T04:52:20.744Z,23.00
2022-12-23T04:54:55.370Z,23.00
2022-12-23T04:57:28.225Z,23.00
2022-12-23T05:00:02.404Z,22.90
2022-12-23T05:02:35.528Z,22.90
2022-12-23T05:05:08.824Z,22.90
2022-12-23T05:07:41.747Z,22.90
2022-12-23T05:10:15.192Z,22.90
2022-12-23T05:12:48.361Z,22.80
2022-12-23T05:15:21.146Z,22.80
2022-12-23T05:17:53.813Z,22.80
2022-12-23T05:20:26.749Z,22.80
2022-12-23T05:22:59.535Z,22.80
2022-12-23T05:25:32.616Z,22.80
2022-12-23T05:28:05.377Z,22.80
2022-12-23T05:30:38.384Z,22.80
2022-12-23T05:33:13.633Z,22.80
2022-12-23T05:35:49.478Z,22.80
2022-12-23T05:38:29.650Z,22.70
2022-12-23T05:41:03.303Z,22.70
2022-12-23T05:43:37.520Z,22.70
2022-12-23T05:46:24.356Z,22.70
2022-12-23T05:48:56.146Z,22.60
2022-12-23T05:51:30.269Z,22.60
2022-12-23T05:54:03.128Z,22.60
2022-12-23T05:56:36.394Z,22.60
2022-12-23T05:59:09.169Z,22.60
2022-12-23T06:01:42.136Z,22.50
2022-12-23T06:04:16.436Z,22.50
2022-12-23T06:06:49.679Z,22.50
2022-12-23T06:09:22.534Z,22.50
2022-12-23T06:11:55.417Z,22.50
2022-12-23T06:14:29.401Z,22.50
2022-12-23T06:17:02.463Z,22.40
2022-12-23T06:19:35.581Z,22.40
2022-12-23T06:22:08.530Z,22.40
2022-12-23T06:24:41.649Z,22.40
2022-12-23T06:27:14.366Z,22.40
2022-12-23T06:29:47.375Z,22.40
2022-12-23T06:32:20.690Z,22.30
2022-12-23T06:34:54.545Z,22.30
2022-12-23T06:37:27.437Z,22.30
2022-12-23T06:40:00.133Z,22.30
2022-12-23T06:42:33.081Z,22.30
2022-12-23T06:45:06.208Z,22.30
2022-12-23T06:47:39.283Z,22.30
2022-12-23T06:50:12.793Z,22.20
2022-12-23T06:52:45.865Z,22.20
2022-12-23T06:55:19.415Z,22.20
2022-12-23T06:57:52.320Z,22.20
2022-12-23T07:00:29.828Z,22.20
2022-12-23T07:03:05.845Z,22.10
2022-12-23T07:05:39.019Z,22.10
2022-12-23T07:11:05.875Z,22.10
2022-12-23T07:13:38.717Z,22.10
2022-12-23T07:16:12.686Z,22.00
2022-12-23T07:18:45.603Z,22.00
2022-12-23T07:21:24.839Z,22.00
2022-12-23T07:23:52.215Z,22.00
2022-12-23T07:26:25.012Z,22.00
2022-12-23T07:28:57.993Z,22.00
2022-12-23T07:34:30.691Z,21.90
2022-12-23T07:37:04.299Z,21.90
2022-12-23T07:39:41.224Z,21.90
2022-12-23T07:42:44.408Z,21.80
2022-12-23T07:45:03.042Z,21.80
2022-12-23T07:47:36.666Z,21.80
2022-12-23T07:50:12.781Z,21.80
2022-12-23T07:52:49.381Z,21.70
2022-12-23T07:55:25.883Z,21.70
2022-12-23T07:58:03.293Z,21.70
2022-12-23T08:00:36.174Z,21.70
2022-12-23T08:03:09.035Z,21.60
2022-12-23T08:05:46.202Z,21.60
2022-12-23T08:08:19.108Z,21.60
2022-12-23T08:10:52.190Z,21.60
2022-12-23T08:13:24.869Z,21.60
2022-12-23T08:16:05.106Z,21.50
2022-12-23T08:18:39.722Z,21.50
2022-12-23T08:21:21.314Z,21.50
2022-12-23T08:23:54.681Z,21.50
2022-12-23T08:26:28.621Z,21.40
2022-12-23T08:29:01.479Z,21.40
2022-12-23T08:31:34.779Z,21.40
2022-12-23T08:34:07.677Z,21.40
2022-12-23T08:36:42.240Z,21.30
2022-12-23T08:39:15.599Z,21.30
2022-12-23T08:41:50.483Z,21.30
2022-12-23T08:44:23.670Z,21.20
2022-12-23T08:46:56.554Z,21.20
2022-12-23T08:49:29.586Z,21.20
2022-12-23T08:52:02.354Z,21.20
2022-12-23T08:54:35.205Z,21.10
2022-12-23T08:57:08.336Z,21.10
2022-12-23T08:59:41.300Z,21.10
2022-12-23T09:02:18.897Z,21.10
2022-12-23T09:04:51.861Z,21.10
2022-12-23T09:07:24.792Z,21.10
2022-12-23T09:09:57.856Z,21.10
2022-12-23T09:12:30.611Z,21.00
2022-12-23T09:15:03.450Z,21.00
2022-12-23T09:17:36.433Z,21.00
2022-12-23T09:20:10.456Z,20.90
2022-12-23T09:22:43.268Z,20.90
2022-12-23T09:25:31.760Z,20.90
2022-12-23T09:28:06.372Z,20.90
2022-12-23T09:30:39.143Z,20.90
2022-12-23T09:33:11.909Z,20.90
2022-12-23T09:35:44.767Z,20.90
2022-12-23T09:38:17.668Z,20.90
2022-12-23T09:40:50.628Z,20.90
2022-12-23T09:43:44.784Z,20.80
2022-12-23T09:46:22.409Z,20.80
2022-12-23T09:49:03.369Z,20.80
2022-12-23T09:51:37.119Z,20.80
2022-12-23T09:54:27.322Z,20.80
2022-12-23T09:57:08.597Z,20.80
2022-12-23T09:59:46.312Z,20.80
2022-12-23T10:02:29.899Z,20.80
2022-12-23T10:05:05.182Z,20.80
2022-12-23T10:07:52.194Z,20.70
2022-12-23T10:10:40.172Z,20.70
2022-12-23T10:13:29.572Z,20.70
2022-12-23T10:16:05.347Z,20.70
2022-12-23T10:18:58.409Z,20.60
2022-12-23T10:21:56.021Z,20.60
2022-12-23T10:24:31.081Z,20.60
2022-12-23T10:27:08.583Z,20.60
2022-12-23T10:29:41.768Z,20.60
2022-12-23T10:32:49.743Z,20.60
2022-12-23T10:35:44.279Z,20.60
2022-12-23T10:38:25.038Z,20.50
2022-12-23T10:41:21.027Z,20.50
2022-12-23T10:44:11.309Z,20.60
2022-12-23T10:47:21.251Z,20.60
2022-12-23T10:50:04.909Z,20.50
2022-12-23T10:52:39.423Z,20.60
2022-12-23T10:55:34.068Z,20.60
2022-12-23T10:58:08.132Z,20.60
2022-12-23T11:00:42.925Z,20.50
2022-12-23T11:03:21.388Z,20.50
2022-12-23T11:05:55.231Z,20.50
2022-12-23T11:08:29.515Z,20.50
2022-12-23T11:11:04.215Z,20.50
2022-12-23T11:13:48.829Z,20.50
2022-12-23T11:16:42.881Z,20.60
2022-12-23T11:19:27.415Z,20.60
2022-12-23T11:22:03.775Z,20.60
2022-12-23T11:24:42.872Z,20.60
2022-12-23T11:27:17.999Z,20.60
2022-12-23T11:29:55.661Z,20.60
2022-12-23T11:32:30.737Z,20.50
2022-12-23T11:35:04.077Z,20.50
2022-12-23T11:37:46.855Z,20.50
2022-12-23T11:40:27.717Z,20.50
2022-12-23T11:43:05.453Z,20.40
2022-12-23T11:45:42.524Z,20.40
2022-12-23T11:48:32.648Z,20.40
2022-12-23T11:51:07.028Z,20.40
2022-12-23T11:53:40.056Z,20.40
2022-12-23T11:56:15.673Z,20.40
2022-12-23T11:58:56.395Z,20.40
2022-12-23T12:01:30.070Z,20.40
2022-12-23T12:04:07.526Z,20.30
2022-12-23T12:06:42.540Z,20.30
2022-12-23T12:09:17.005Z,20.30
2022-12-23T12:11:52.405Z,20.30
2022-12-23T12:14:27.285Z,20.40
2022-12-23T12:17:23.333Z,20.40
2022-12-23T12:20:01.199Z,20.40
2022-12-23T12:22:57.561Z,20.30
2022-12-23T12:25:57.950Z,20.30
2022-12-23T12:28:35.378Z,20.30
2022-12-23T12:31:31.768Z,20.30
2022-12-23T12:34:26.873Z,20.20
2022-12-23T12:37:20.765Z,20.20
2022-12-23T12:40:14.019Z,20.20
2022-12-23T12:42:48.815Z,20.10
2022-12-23T12:45:47.837Z,20.10
2022-12-23T12:48:42.415Z,20.10
2022-12-23T12:51:35.705Z,20.10
2022-12-23T12:54:16.252Z,20.10
2022-12-23T12:57:03.787Z,20.10
2022-12-23T12:59:44.649Z,20.10
2022-12-23T13:02:54.098Z,20.10
2022-12-23T13:05:54.215Z,20.00
2022-12-23T13:08:27.965Z,20.00
2022-12-23T13:11:11.631Z,20.00
2022-12-23T13:14:01.903Z,20.00
2022-12-23T13:17:05.939Z,20.00
2022-12-23T13:19:57.199Z,19.90
2022-12-23T13:22:37.603Z,19.90
2022-12-23T13:25:15.683Z,19.90
2022-12-23T13:28:22.121Z,19.90
2022-12-23T13:31:02.674Z,19.80
2022-12-23T13:33:43.276Z,19.80
2022-12-23T13:36:21.128Z,19.80
2022-12-23T13:39:11.140Z,19.80
2022-12-23T13:41:52.042Z,19.80
2022-12-23T13:44:26.016Z,19.80
2022-12-23T13:47:06.244Z,19.80
2022-12-23T13:49:46.926Z,19.80
2022-12-23T13:52:38.190Z,19.80
2022-12-23T13:55:24.907Z,19.70
2022-12-23T13:58:05.489Z,19.70
2022-12-23T14:00:39.216Z,19.70
2022-12-23T14:03:16.903Z,19.70
2022-12-23T14:05:56.914Z,19.70
2022-12-23T14:08:41.091Z,19.70
2022-12-23T14:11:19.308Z,19.60
2022-12-23T14:14:00.212Z,19.60
2022-12-23T14:16:56.433Z,19.60
2022-12-23T14:20:04.666Z,19.60
2022-12-23T14:22:45.933Z,19.50
2022-12-23T14:25:38.605Z,19.50
2022-12-23T14:28:16.196Z,19.50
2022-12-23T14:30:49.294Z,19.50
2022-12-23T14:33:30.680Z,19.50
2022-12-23T14:36:08.394Z,19.50
2022-12-23T14:38:41.313Z,19.50
2022-12-23T14:41:47.712Z,19.50
2022-12-23T14:44:28.485Z,19.40
2022-12-23T14:47:02.170Z,19.40
2022-12-23T14:49:43.358Z,19.40
2022-12-23T14:52:45.116Z,19.40
2022-12-23T14:55:36.141Z,19.40
2022-12-23T14:58:17.696Z,19.30
2022-12-23T15:00:52.792Z,19.30
2022-12-23T15:03:26.082Z,19.30
2022-12-23T15:05:59.611Z,19.30
2022-12-23T15:08:43.701Z,19.30
2022-12-23T15:11:18.401Z,19.40
2022-12-23T15:13:52.538Z,19.40
2022-12-23T15:16:27.565Z,19.40
2022-12-23T15:19:01.941Z,19.40
2022-12-23T15:21:36.717Z,19.30
2022-12-23T15:24:10.680Z,19.30
2022-12-23T15:27:09.829Z,19.30
2022-12-23T15:29:19.721Z,19.30
2022-12-23T15:32:00.438Z,19.30
2022-12-23T15:34:35.539Z,19.30
2022-12-23T15:37:10.096Z,19.30
2022-12-23T15:39:52.720Z,19.30
2022-12-23T15:42:29.045Z,19.40
2022-12-23T15:45:01.974Z,19.40
2022-12-23T15:47:37.201Z,19.30
2022-12-23T15:50:12.360Z,19.30
2022-12-23T15:52:46.530Z,19.30
2022-12-23T15:55:24.383Z,19.40
2022-12-23T15:57:57.601Z,19.40
2022-12-23T16:00:35.694Z,19.40
2022-12-23T16:03:15.663Z,19.40
2022-12-23T16:05:44.975Z,19.40
2022-12-23T16:08:32.823Z,19.30
2022-12-23T16:11:22.480Z,19.30
2022-12-23T16:14:06.640Z,19.30
2022-12-23T16:16:44.243Z,19.30
2022-12-23T16:19:41.761Z,19.30
2022-12-23T16:22:35.195Z,19.30
2022-12-23T16:25:15.713Z,19.30
2022-12-23T16:27:53.366Z,19.30
2022-12-23T16:30:28.230Z,19.20
2022-12-23T16:33:04.025Z,19.20
2022-12-23T16:35:44.992Z,19.20
2022-12-23T16:38:26.417Z,19.20
2022-12-23T16:41:00.458Z,19.20
2022-12-23T16:43:34.184Z,19.20
2022-12-23T16:46:07.324Z,19.30
2022-12-23T16:48:41.849Z,19.30
2022-12-23T16:51:16.595Z,19.30
2022-12-23T16:53:50.047Z,19.30
2022-12-23T16:56:24.358Z,19.30
2022-12-23T16:58:57.250Z,19.30
2022-12-23T17:01:35.348Z,19.30
2022-12-23T17:04:08.539Z,19.30
2022-12-23T17:06:42.696Z,19.30
2022-12-23T17:09:15.782Z,19.30
2022-12-23T17:11:56.679Z,19.30
2022-12-23T17:14:29.643Z,19.30
2022-12-23T17:17:02.899Z,19.30
2022-12-23T17:19:35.942Z,19.30
2022-12-23T17:22:08.803Z,19.30
2022-12-23T17:24:41.784Z,19.40
2022-12-23T17:27:19.293Z,19.30
2022-12-23T17:29:55.170Z,19.40
2022-12-23T17:32:28.500Z,19.40
2022-12-23T17:35:01.474Z,19.40
2022-12-23T17:37:34.660Z,19.40
2022-12-23T17:40:07.764Z,19.40
2022-12-23T17:42:40.801Z,19.40
2022-12-23T17:45:32.789Z,19.50
2022-12-23T17:48:05.692Z,19.40
2022-12-23T17:50:39.870Z,19.40
2022-12-23T17:53:14.122Z,19.50
2022-12-23T17:55:46.904Z,19.50
2022-12-23T17:58:20.100Z,19.50
2022-12-23T18:00:53.006Z,19.60
2022-12-23T18:03:28.037Z,19.60
2022-12-23T18:06:02.300Z,19.60
2022-12-23T18:08:35.426Z,19.60
2022-12-23T18:11:08.446Z,19.60
2022-12-23T18:13:41.695Z,19.60
2022-12-23T18:16:16.335Z,19.60
2022-12-23T18:18:49.492Z,19.60
2022-12-23T18:21:32.591Z,19.60
2022-12-23T18:24:05.653Z,19.70
2022-12-23T18:26:38.424Z,19.70
2022-12-23T18:29:11.247Z,19.70
2022-12-23T18:31:50.661Z,19.70
2022-12-23T18:34:25.468Z,19.70
2022-12-23T18:36:58.315Z,19.80
2022-12-23T18:39:31.262Z,19.80
2022-12-23T18:42:04.140Z,19.80
2022-12-23T18:44:37.839Z,19.80
2022-12-23T18:47:11.285Z,19.80
2022-12-23T18:49:44.592Z,19.90
2022-12-23T18:52:17.511Z,19.90
2022-12-23T18:54:50.618Z,19.90
2022-12-23T18:57:23.295Z,19.90
2022-12-23T18:59:56.583Z,19.90
2022-12-23T19:02:29.714Z,20.00
2022-12-23T19:05:02.746Z,20.00
2022-12-23T19:07:35.694Z,20.00
2022-12-23T19:10:10.085Z,20.00
2022-12-23T19:12:43.088Z,20.00
2022-12-23T19:15:16.808Z,20.00
2022-12-23T19:17:50.226Z,20.10
2022-12-23T19:20:24.284Z,20.10
2022-12-23T19:22:57.207Z,20.10
2022-12-23T19:25:30.272Z,20.10
2022-12-23T19:28:03.142Z,20.10
2022-12-23T19:30:36.499Z,20.10
2022-12-23T19:33:09.420Z,20.10
2022-12-23T19:35:43.476Z,20.10
2022-12-23T19:38:16.404Z,20.20
2022-12-23T19:40:49.335Z,20.20
2022-12-23T19:43:22.364Z,20.20
2022-12-23T19:46:05.472Z,20.20
2022-12-23T19:48:38.808Z,20.30
2022-12-23T19:51:14.136Z,20.30
2022-12-23T19:53:48.031Z,20.30
2022-12-23T19:56:22.874Z,20.30
2022-12-23T19:58:55.785Z,20.40
2022-12-23T20:01:32.346Z,20.40
2022-12-23T20:04:05.228Z,20.40
2022-12-23T20:06:39.922Z,20.40
2022-12-23T20:09:14.785Z,20.50
2022-12-23T20:11:49.306Z,20.50
2022-12-23T20:14:24.512Z,20.50
2022-12-23T20:16:57.781Z,20.60
2022-12-23T20:19:30.913Z,20.60
2022-12-23T20:22:04.007Z,20.60
2022-12-23T20:24:37.879Z,20.70
2022-12-23T20:27:12.107Z,20.70
2022-12-23T20:29:44.846Z,20.70
2022-12-23T20:32:17.636Z,20.70
2022-12-23T20:34:51.959Z,20.70
2022-12-23T20:37:25.544Z,20.70
2022-12-23T20:39:58.494Z,20.70
2022-12-23T20:42:31.454Z,20.80
2022-12-23T20:45:04.452Z,20.80
2022-12-23T20:47:37.622Z,20.70
2022-12-23T20:50:15.408Z,20.80
2022-12-23T20:52:48.464Z,20.80
2022-12-23T20:55:21.373Z,20.80
2022-12-23T20:57:54.063Z,20.80
2022-12-23T21:00:26.863Z,20.80
2022-12-23T21:03:01.583Z,20.80
2022-12-23T21:05:34.175Z,20.80
2022-12-23T21:08:07.301Z,20.90
2022-12-23T21:10:41.224Z,20.90
2022-12-23T21:13:14.198Z,20.90
2022-12-23T21:15:47.077Z,20.90
2022-12-23T21:18:20.215Z,20.90
2022-12-23T21:20:53.088Z,20.90
2022-12-23T21:23:26.612Z,21.00
2022-12-23T21:26:17.962Z,21.00
2022-12-23T21:28:51.890Z,21.00
2022-12-23T21:31:28.194Z,21.00
2022-12-23T21:34:01.729Z,21.00
2022-12-23T21:36:36.435Z,21.10
2022-12-23T21:39:11.053Z,21.10
2022-12-23T21:41:44.442Z,21.20
2022-12-23T21:44:17.528Z,21.20
2022-12-23T21:46:51.510Z,21.20
2022-12-23T21:49:24.239Z,21.30
2022-12-23T21:51:57.944Z,21.30
2022-12-23T21:54:30.734Z,21.30
2022-12-23T21:57:03.914Z,21.30
2022-12-23T21:59:36.962Z,21.30
2022-12-23T22:02:10.231Z,21.40
2022-12-23T22:04:46.388Z,21.40
2022-12-23T22:07:32.025Z,21.30
2022-12-23T22:10:05.112Z,21.30
2022-12-23T22:12:38.473Z,21.30
2022-12-23T22:15:12.199Z,21.40
2022-12-23T22:17:45.224Z,21.40
2022-12-23T22:20:18.406Z,21.40
2022-12-23T22:22:52.154Z,21.40
2022-12-23T22:25:26.218Z,21.40
2022-12-23T22:27:59.195Z,21.50
2022-12-23T22:30:32.145Z,21.50
2022-12-23T22:33:05.189Z,21.50
2022-12-23T22:35:38.316Z,21.60
2022-12-23T22:38:11.290Z,21.60
2022-12-23T22:40:44.275Z,21.60
2022-12-23T22:43:17.415Z,21.70
2022-12-23T22:45:50.940Z,21.70
2022-12-23T22:48:23.864Z,21.70
2022-12-23T22:50:57.942Z,21.70
2022-12-23T22:53:30.917Z,21.70
2022-12-23T22:56:05.241Z,21.80
2022-12-23T22:58:38.410Z,21.80
2022-12-23T23:01:13.336Z,21.80
2022-12-23T23:03:46.838Z,21.80
2022-12-23T23:06:20.254Z,21.90
2022-12-23T23:08:57.347Z,21.90
2022-12-23T23:11:31.167Z,22.00
2022-12-23T23:14:03.962Z,22.00
2022-12-23T23:16:37.119Z,22.10
2022-12-23T23:19:11.076Z,22.10
2022-12-23T23:21:44.857Z,22.20
2022-12-23T23:24:17.824Z,22.30
2022-12-23T23:26:50.883Z,22.30
2022-12-23T23:29:23.927Z,22.30
2022-12-23T23:31:57.071Z,22.30
2022-12-23T23:34:30.701Z,22.30
2022-12-23T23:37:03.732Z,22.30
2022-12-23T23:39:36.495Z,22.30
2022-12-23T23:42:09.465Z,22.30
2022-12-23T23:44:42.509Z,22.30
2022-12-23T23:47:15.390Z,22.30
2022-12-23T23:49:49.112Z,22.30
2022-12-23T23:52:22.034Z,22.30
2022-12-23T23:54:57.376Z,22.30
2022-12-23T23:57:30.607Z,22.30
